Time;durP1;ratioP1;P1;durP2;ratioP2;P2;SDS_P1;SDS_P2;PMS_P1;PMS_P2;Temp;Humidity;BMP_temperature;BMP_pressure;BME280_temperature;BME280_humidity;BME280_pressure;Samples;Min_cycle;Max_cycle;Signal;HPM_P1;HPM_P2
2023/01/01 00:00:10;;;;;;;17.73;9.20;;;15.50;99.90;;;;;;5095554;28;20038;-74
2023/01/01 00:02:36;;;;;;;13.02;7.63;;;15.50;99.90;;;;;;5095334;28;20035;-79
2023/01/01 00:05:01;;;;;;;15.38;7.75;;;15.50;99.90;;;;;;5095519;28;20479;-73
2023/01/01 00:07:28;;;;;;;10.90;6.55;;;15.50;99.90;;;;;;5113824;28;20024;-74
2023/01/01 00:12:38;;;;;;;11.18;6.75;;;15.50;99.90;;;;;;5113290;28;20030;-74
2023/01/01 00:15:03;;;;;;;12.30;6.57;;;15.50;99.90;;;;;;5113712;28;20024;-73
2023/01/01 00:17:29;;;;;;;10.95;6.38;;;15.50;99.90;;;;;;5092015;28;20048;-73
2023/01/01 00:19:55;;;;;;;11.57;6.35;;;15.50;99.90;;;;;;5091406;28;20028;-73
2023/01/01 00:22:20;;;;;;;10.35;6.57;;;15.40;99.90;;;;;;5093338;28;20429;-72
2023/01/01 00:24:46;;;;;;;33.30;17.52;;;15.50;99.90;;;;;;5092220;28;20081;-73
2023/01/01 00:27:12;;;;;;;25.38;14.57;;;15.40;99.90;;;;;;5091964;28;20024;-73
2023/01/01 00:29:37;;;;;;;50.17;25.60;;;15.50;99.90;;;;;;5091417;28;20214;-77
2023/01/01 00:32:03;;;;;;;45.72;26.20;;;15.50;99.90;;;;;;5092857;28;20423;-73
2023/01/01 00:34:28;;;;;;;19.95;10.05;;;15.50;99.90;;;;;;5092998;28;20081;-73
2023/01/01 00:36:55;;;;;;;21.00;8.13;;;15.50;99.90;;;;;;5090963;28;20503;-73
2023/01/01 00:39:21;;;;;;;12.80;7.78;;;15.60;99.90;;;;;;5091300;28;20055;-73
2023/01/01 00:41:46;;;;;;;14.32;9.20;;;15.60;99.90;;;;;;5091302;28;20461;-73
2023/01/01 00:44:12;;;;;;;9.65;5.78;;;15.60;99.90;;;;;;5092970;28;20107;-73
2023/01/01 00:46:38;;;;;;;8.48;4.97;;;15.60;99.90;;;;;;5091760;28;20031;-73
2023/01/01 00:49:03;;;;;;;6.72;4.63;;;15.60;99.90;;;;;;5091714;28;20529;-73
2023/01/01 00:51:29;;;;;;;8.73;4.70;;;15.60;99.90;;;;;;5092917;28;20024;-73
2023/01/01 00:53:54;;;;;;;6.80;4.20;;;15.50;99.90;;;;;;5091353;28;20059;-73
2023/01/01 00:56:20;;;;;;;7.95;4.00;;;15.50;99.90;;;;;;5092772;28;20050;-74
2023/01/01 00:58:45;;;;;;;7.45;3.83;;;15.50;99.90;;;;;;5091127;28;20039;-74
2023/01/01 01:01:11;;;;;;;11.10;4.05;;;15.50;99.90;;;;;;5092602;28;20036;-73
2023/01/01 01:03:38;;;;;;;7.65;4.03;;;15.50;99.90;;;;;;5092623;28;20031;-73
2023/01/01 01:06:03;;;;;;;6.68;3.85;;;15.40;99.90;;;;;;5091000;28;20116;-73
2023/01/01 01:08:32;;;;;;;4.93;3.28;;;15.40;99.90;;;;;;5092963;28;20091;-73
2023/01/01 01:11:09;;;;;;;9.60;3.83;;;15.40;99.90;;;;;;5091045;28;20030;-73
2023/01/01 01:13:36;;;;;;;5.07;3.40;;;15.40;99.90;;;;;;5091704;28;20028;-73
2023/01/01 01:16:18;;;;;;;4.18;2.97;;;15.40;99.90;;;;;;5093959;28;20401;-73
2023/01/01 01:18:43;;;;;;;7.57;3.53;;;15.30;99.90;;;;;;5112583;28;20066;-73
2023/01/01 01:21:10;;;;;;;6.07;3.22;;;15.30;99.90;;;;;;5113044;28;20071;-73
2023/01/01 01:23:36;;;;;;;7.45;3.42;;;15.30;99.90;;;;;;5094948;28;20028;-73
2023/01/01 01:26:19;;;;;;;7.03;3.67;;;15.30;99.90;;;;;;5112571;28;20392;-73
2023/01/01 01:28:45;;;;;;;6.07;3.60;;;15.30;99.90;;;;;;5112243;28;20106;-74
2023/01/01 01:31:12;;;;;;;8.52;3.80;;;15.20;99.90;;;;;;5094717;28;20034;-73
2023/01/01 01:33:38;;;;;;;6.63;3.65;;;15.20;99.90;;;;;;5112908;28;20469;-73
2023/01/01 01:36:05;;;;;;;6.10;3.65;;;15.20;99.90;;;;;;5112297;28;20020;-72
2023/01/01 01:38:31;;;;;;;5.28;3.38;;;15.20;99.90;;;;;;5094502;28;20028;-73
2023/01/01 01:40:57;;;;;;;5.80;3.50;;;15.20;99.90;;;;;;5112659;28;20129;-73
2023/01/01 01:43:24;;;;;;;5.45;3.40;;;15.20;99.90;;;;;;5094631;28;20103;-73
2023/01/01 01:45:55;;;;;;;5.80;3.03;;;15.20;99.90;;;;;;5094090;28;20114;-73
2023/01/01 01:48:22;;;;;;;5.20;3.10;;;15.20;99.90;;;;;;5094788;28;20384;-73
2023/01/01 01:50:51;;;;;;;6.55;3.17;;;15.20;99.90;;;;;;5097874;28;20024;-73
2023/01/01 01:53:24;;;;;;;4.65;3.00;;;15.30;99.90;;;;;;5098337;28;20031;-73
2023/01/01 01:56:03;;;;;;;6.75;2.70;;;15.30;99.90;;;;;;5097763;28;20068;-73
2023/01/01 01:58:30;;;;;;;5.57;3.17;;;15.30;99.90;;;;;;5097950;28;20028;-73
2023/01/01 02:00:56;;;;;;;6.22;3.22;;;15.30;99.90;;;;;;5115648;28;20031;-73
2023/01/01 02:03:32;;;;;;;6.25;2.60;;;15.30;99.90;;;;;;5115852;28;20392;-73
2023/01/01 02:06:00;;;;;;;6.07;3.03;;;15.20;99.90;;;;;;5115732;28;20027;-73
2023/01/01 02:08:26;;;;;;;5.35;3.05;;;15.20;99.90;;;;;;5098018;28;20115;-73
2023/01/01 02:10:51;;;;;;;6.03;3.15;;;15.20;99.90;;;;;;5097249;28;20488;-73
2023/01/01 02:13:17;;;;;;;6.00;3.00;;;15.20;99.90;;;;;;5097757;28;20377;-73
2023/01/01 02:16:09;;;;;;;5.32;3.20;;;15.10;99.90;;;;;;5097512;28;20488;-73
2023/01/01 02:18:56;;;;;;;6.30;2.95;;;15.00;99.90;;;;;;5103840;28;20523;-73
2023/01/01 02:21:43;;;;;;;4.25;2.65;;;15.00;99.90;;;;;;5097637;28;20104;-73
2023/01/01 02:24:19;;;;;;;7.00;2.60;;;15.00;99.90;;;;;;5097672;28;20426;-73
2023/01/01 02:26:58;;;;;;;4.55;2.92;;;15.00;99.90;;;;;;5096942;28;20020;-75
2023/01/01 02:29:43;;;;;;;5.72;2.78;;;14.90;99.90;;;;;;5115688;28;20028;-73
2023/01/01 02:32:13;;;;;;;11.10;2.58;;;14.90;99.90;;;;;;5097331;28;20028;-73
2023/01/01 02:34:51;;;;;;;3.67;2.50;;;14.90;99.90;;;;;;5115671;28;20027;-73
2023/01/01 02:37:20;;;;;;;4.95;2.80;;;14.90;99.90;;;;;;5097489;28;20381;-73
2023/01/01 02:39:58;;;;;;;3.75;2.38;;;14.90;99.90;;;;;;5114932;28;20076;-74
2023/01/01 02:42:27;;;;;;;4.78;2.85;;;14.90;99.90;;;;;;5097296;28;20492;-73
2023/01/01 02:44:56;;;;;;;6.13;2.33;;;14.90;99.90;;;;;;5114644;28;20024;-73
2023/01/01 02:47:22;;;;;;;4.55;2.17;;;14.90;99.90;;;;;;5097347;28;20168;-73
2023/01/01 02:50:12;;;;;;;4.78;2.67;;;15.00;99.90;;;;;;5096471;28;20059;-74
2023/01/01 02:53:08;;;;;;;6.82;2.40;;;15.00;99.90;;;;;;5097021;28;20124;-73
2023/01/01 02:55:45;;;;;;;6.97;2.85;;;14.90;99.90;;;;;;5115206;28;20072;-73
2023/01/01 03:01:19;;;;;;;5.25;2.70;;;14.90;99.90;;;;;;5113962;28;20123;-73
2023/01/01 03:04:26;;;;;;;7.10;2.50;;;14.90;99.90;;;;;;5115138;28;20046;-73
2023/01/01 03:07:03;;;;;;;5.03;2.33;;;14.90;99.90;;;;;;5099736;28;20074;-73
2023/01/01 03:09:43;;;;;;;5.13;2.30;;;14.90;99.90;;;;;;5096856;28;20465;-73
2023/01/01 03:12:38;;;;;;;4.25;2.15;;;14.90;99.90;;;;;;5096147;28;20024;-73
2023/01/01 03:15:13;;;;;;;5.22;2.45;;;14.90;99.90;;;;;;5096299;28;20038;-73
2023/01/01 03:17:49;;;;;;;5.35;2.30;;;14.90;99.90;;;;;;5096380;28;20546;-73
2023/01/01 03:20:26;;;;;;;7.00;2.85;;;14.90;99.90;;;;;;5096343;28;20034;-73
2023/01/01 03:22:56;;;;;;;4.65;2.08;;;14.90;99.90;;;;;;5096024;28;20121;-74
2023/01/01 03:25:25;;;;;;;3.35;2.10;;;14.90;99.90;;;;;;5096339;28;20032;-73
2023/01/01 03:28:19;;;;;;;3.50;2.30;;;14.90;99.90;;;;;;5095457;28;20388;-73
2023/01/01 03:30:46;;;;;;;3.65;2.08;;;14.90;99.90;;;;;;5086183;28;20126;-73
2023/01/01 03:33:31;;;;;;;4.15;2.00;;;15.00;99.90;;;;;;5114159;28;20504;-73
2023/01/01 03:36:04;;;;;;;5.70;1.90;;;15.00;99.90;;;;;;5095736;28;20055;-73
2023/01/01 03:38:42;;;;;;;4.00;2.05;;;15.10;99.90;;;;;;5095693;28;20028;-73
2023/01/01 03:41:14;;;;;;;3.83;1.83;;;15.00;99.90;;;;;;5095532;28;20032;-73
2023/01/01 03:43:51;;;;;;;;;;;15.00;99.90;;;;;;5096068;28;20035;-73
2023/01/01 03:46:27;;;;;;;2.72;1.50;;;15.10;99.90;;;;;;5095889;28;19910;-73
2023/01/01 03:48:56;;;;;;;4.18;1.77;;;15.10;99.90;;;;;;5095337;28;20496;-74
2023/01/01 03:51:50;;;;;;;4.68;1.90;;;15.10;99.90;;;;;;5095748;28;20035;-73
2023/01/01 03:54:45;;;;;;;3.03;1.73;;;15.10;99.90;;;;;;5095820;28;20027;-73
2023/01/01 03:57:49;;;;;;;2.97;1.50;;;15.00;99.90;;;;;;5095201;28;20110;-73
2023/01/01 04:00:19;;;;;;;3.70;1.67;;;15.00;99.90;;;;;;5113862;28;20114;-73
2023/01/01 04:03:15;;;;;;;5.72;2.70;;;15.00;99.90;;;;;;5113444;28;20476;-73
2023/01/01 04:05:42;;;;;;;8.05;3.40;;;15.10;99.90;;;;;;5087477;28;20036;-73
2023/01/01 04:08:09;;;;;;;5.05;2.22;;;15.10;99.90;;;;;;5112938;28;20016;-73
2023/01/01 04:10:38;;;;;;;3.08;1.65;;;15.10;99.90;;;;;;5113716;28;20032;-73
2023/01/01 04:13:05;;;;;;;2.03;1.17;;;15.10;99.90;;;;;;5093912;28;20035;-73
2023/01/01 04:15:32;;;;;;;3.78;1.92;;;15.10;99.90;;;;;;5095347;28;20024;-73
2023/01/01 04:17:57;;;;;;;1.67;1.20;;;15.10;99.90;;;;;;5113445;28;20144;-73
2023/01/01 04:20:24;;;;;;;1.67;1.30;;;15.00;99.90;;;;;;5095214;28;20468;-73
2023/01/01 04:22:50;;;;;;;3.13;1.20;;;15.10;99.90;;;;;;5113618;28;20111;-73
2023/01/01 04:25:16;;;;;;;1.92;1.10;;;15.10;99.90;;;;;;5113554;28;20106;-73
2023/01/01 04:27:43;;;;;;;6.90;1.20;;;15.10;99.90;;;;;;5113652;28;20540;-73
2023/01/01 04:30:11;;;;;;;3.33;1.10;;;15.20;99.90;;;;;;5094550;28;20415;-73
2023/01/01 04:32:37;;;;;;;2.05;1.23;;;15.20;99.90;;;;;;5095131;28;20505;-73
2023/01/01 04:35:03;;;;;;;1.90;1.15;;;15.10;99.90;;;;;;5094721;28;20058;-73
2023/01/01 04:37:28;;;;;;;3.35;1.10;;;15.20;99.90;;;;;;5095284;28;20110;-73
2023/01/01 04:39:54;;;;;;;3.88;1.15;;;15.10;99.90;;;;;;5094581;28;20119;-73
2023/01/01 04:42:19;;;;;;;3.17;1.00;;;15.20;99.90;;;;;;5095181;28;20031;-74
2023/01/01 04:44:45;;;;;;;2.10;1.08;;;15.10;99.90;;;;;;5113066;28;20027;-73
2023/01/01 04:47:11;;;;;;;2.65;1.10;;;15.10;99.90;;;;;;5094033;28;20461;-73
2023/01/01 04:49:37;;;;;;;3.05;1.50;;;15.10;99.90;;;;;;5094559;28;20062;-73
2023/01/01 04:52:02;;;;;;;1.90;1.10;;;15.10;99.90;;;;;;5093999;28;20498;-73
2023/01/01 04:54:28;;;;;;;1.90;1.00;;;15.10;99.90;;;;;;5094786;28;20047;-73
2023/01/01 04:56:54;;;;;;;2.15;0.98;;;15.10;99.90;;;;;;5093643;28;20077;-74
2023/01/01 04:59:19;;;;;;;1.95;0.90;;;15.00;99.90;;;;;;5094446;28;20036;-73
2023/01/01 05:01:45;;;;;;;5.63;1.10;;;15.00;99.90;;;;;;5094440;28;20032;-73
2023/01/01 05:04:15;;;;;;;1.67;0.85;;;15.00;99.90;;;;;;5094421;28;20024;-73
2023/01/01 05:06:41;;;;;;;3.55;1.20;;;15.00;99.90;;;;;;5094435;28;20042;-73
2023/01/01 05:09:08;;;;;;;2.70;0.90;;;15.00;99.90;;;;;;5112537;28;20032;-73
2023/01/01 05:11:34;;;;;;;2.65;0.93;;;15.00;99.90;;;;;;5094754;28;20023;-73
2023/01/01 05:14:00;;;;;;;2.53;1.30;;;15.10;99.90;;;;;;5112739;28;20487;-73
2023/01/01 05:16:28;;;;;;;3.35;1.00;;;15.10;99.90;;;;;;5112621;28;20441;-73
2023/01/01 05:18:54;;;;;;;2.30;1.25;;;15.10;99.90;;;;;;5094704;28;20023;-73
2023/01/01 05:21:22;;;;;;;3.38;0.95;;;15.10;99.90;;;;;;5094598;28;20536;-73
2023/01/01 05:23:52;;;;;;;1.27;0.93;;;15.00;99.90;;;;;;5113885;28;20479;-73
2023/01/01 05:26:20;;;;;;;1.30;0.80;;;15.00;99.90;;;;;;5116604;28;20131;-74
2023/01/01 05:28:47;;;;;;;1.92;0.95;;;15.00;99.90;;;;;;5098519;28;20481;-73
2023/01/01 05:31:15;;;;;;;3.03;1.10;;;15.00;99.90;;;;;;5098022;28;20050;-73
2023/01/01 05:33:41;;;;;;;4.07;0.90;;;15.00;99.90;;;;;;5116501;28;20031;-73
2023/01/01 05:36:12;;;;;;;1.83;1.20;;;15.00;99.90;;;;;;5116235;28;20043;-73
2023/01/01 05:38:38;;;;;;;3.20;1.10;;;15.00;99.90;;;;;;5116629;28;20028;-73
2023/01/01 05:41:08;;;;;;;2.30;0.82;;;15.00;99.90;;;;;;5116159;28;20035;-73
2023/01/01 05:43:35;;;;;;;2.67;1.33;;;15.00;99.90;;;;;;5116817;28;20064;-73
2023/01/01 05:46:02;;;;;;;2.83;1.08;;;15.00;99.90;;;;;;5097822;28;20024;-73
2023/01/01 05:48:28;;;;;;;2.17;1.02;;;15.00;99.90;;;;;;5116444;28;20508;-73
2023/01/01 05:51:00;;;;;;;2.10;1.10;;;15.00;99.90;;;;;;5116738;28;20106;-74
2023/01/01 05:53:25;;;;;;;4.80;1.17;;;15.00;99.90;;;;;;5116552;28;20035;-73
2023/01/01 05:55:52;;;;;;;2.78;1.10;;;15.00;99.90;;;;;;5097791;28;20032;-73
2023/01/01 05:58:18;;;;;;;3.15;1.15;;;15.00;99.90;;;;;;5116065;28;20073;-73
2023/01/01 06:00:44;;;;;;;1.95;1.13;;;14.90;99.90;;;;;;5116162;28;20036;-73
2023/01/01 06:03:09;;;;;;;2.08;1.15;;;14.90;99.90;;;;;;5115663;28;20077;-73
2023/01/01 06:05:35;;;;;;;8.70;3.60;;;14.90;99.90;;;;;;5097745;28;20032;-73
2023/01/01 06:08:00;;;;;;;5.65;1.48;;;14.80;99.90;;;;;;5097393;28;20024;-73
2023/01/01 06:10:26;;;;;;;3.03;1.20;;;14.80;99.90;;;;;;5115870;28;20028;-74
2023/01/01 06:12:57;;;;;;;2.92;1.00;;;14.80;99.90;;;;;;5115795;28;20361;-73
2023/01/01 06:15:26;;;;;;;2.22;1.40;;;14.80;99.90;;;;;;5097708;28;20030;-73
2023/01/01 06:17:51;;;;;;;3.22;1.30;;;14.80;99.90;;;;;;5097656;28;20047;-73
2023/01/01 06:20:17;;;;;;;2.72;1.50;;;14.80;99.90;;;;;;5097125;28;20199;-73
2023/01/01 06:22:43;;;;;;;3.65;1.00;;;14.70;99.90;;;;;;5097636;28;20489;-73
2023/01/01 06:25:09;;;;;;;2.72;1.27;;;14.80;99.90;;;;;;5097000;28;20461;-73
2023/01/01 06:27:35;;;;;;;5.20;1.45;;;14.70;99.90;;;;;;5115769;28;20525;-73
2023/01/01 06:30:05;;;;;;;4.00;2.20;;;14.70;99.90;;;;;;5096912;28;20085;-73
2023/01/01 06:32:31;;;;;;;4.55;1.85;;;14.60;99.90;;;;;;5115367;28;20046;-73
2023/01/01 06:34:57;;;;;;;2.38;1.35;;;14.60;99.90;;;;;;5114640;28;20149;-73
2023/01/01 06:37:23;;;;;;;4.82;1.73;;;14.60;99.90;;;;;;5096492;28;20073;-73
2023/01/01 06:39:48;;;;;;;4.90;1.42;;;14.60;99.90;;;;;;5097040;28;20512;-73
2023/01/01 06:42:14;;;;;;;4.53;1.48;;;14.50;99.90;;;;;;5114973;28;20464;-74
2023/01/01 06:44:39;;;;;;;6.53;1.50;;;14.50;99.90;;;;;;5115457;28;20027;-73
2023/01/01 06:47:05;;;;;;;2.40;1.20;;;14.50;99.90;;;;;;5096526;28;20019;-74
2023/01/01 06:49:31;;;;;;;3.42;1.60;;;14.50;99.90;;;;;;5097069;28;20084;-73
2023/01/01 06:51:56;;;;;;;2.50;1.20;;;14.50;99.90;;;;;;5097074;28;20019;-73
2023/01/01 06:54:22;;;;;;;2.78;1.38;;;14.50;99.90;;;;;;5096563;28;20481;-73
2023/01/01 06:56:48;;;;;;;2.58;1.38;;;14.40;99.90;;;;;;5096716;28;20027;-73
2023/01/01 06:59:15;;;;;;;3.15;1.20;;;14.40;99.90;;;;;;5114518;28;20035;-74
2023/01/01 07:01:41;;;;;;;2.92;1.30;;;14.40;99.90;;;;;;5096747;28;20028;-73
2023/01/01 07:04:10;;;;;;;2.83;1.65;;;14.30;99.90;;;;;;5096339;28;20068;-74
2023/01/01 07:06:37;;;;;;;2.17;1.55;;;14.20;99.90;;;;;;5114736;28;20072;-73
2023/01/01 07:09:03;;;;;;;2.47;1.52;;;14.20;99.90;;;;;;5095882;28;20043;-74
2023/01/01 07:11:29;;;;;;;4.25;1.77;;;14.20;99.90;;;;;;5096497;28;20019;-73
2023/01/01 07:13:55;;;;;;;3.47;1.92;;;14.10;99.90;;;;;;5096534;28;20384;-74
2023/01/01 07:16:22;;;;;;;3.47;1.73;;;14.10;99.90;;;;;;5113963;28;20122;-74
2023/01/01 07:18:49;;;;;;;5.10;1.88;;;14.10;99.90;;;;;;5096891;28;20116;-73
2023/01/01 07:21:26;;;;;;;3.13;1.80;;;14.00;99.90;;;;;;5096089;28;20456;-73
2023/01/01 07:23:55;;;;;;;4.25;1.70;;;13.90;99.90;;;;;;5114714;28;20052;-73
2023/01/01 07:26:23;;;;;;;4.30;1.80;;;13.90;99.90;;;;;;5095748;28;20031;-74
2023/01/01 07:28:49;;;;;;;5.97;2.08;;;13.90;99.90;;;;;;5096391;28;20068;-73
2023/01/01 07:31:15;;;;;;;5.22;2.08;;;13.80;99.90;;;;;;5095810;28;20406;-73
2023/01/01 07:33:40;;;;;;;6.35;2.13;;;13.80;99.90;;;;;;5096527;28;20387;-73
2023/01/01 07:36:06;;;;;;;4.32;2.17;;;13.70;99.90;;;;;;5095690;28;20022;-74
2023/01/01 07:38:32;;;;;;;6.05;2.00;;;13.70;99.90;;;;;;5114394;28;20035;-75
2023/01/01 07:40:57;;;;;;;4.07;2.00;;;13.60;99.90;;;;;;5095958;28;20043;-74
2023/01/01 07:43:23;;;;;;;7.40;2.13;;;13.60;99.90;;;;;;5095593;28;20023;-74
2023/01/01 07:45:49;;;;;;;3.22;1.80;;;13.50;99.90;;;;;;5095965;28;20027;-73
2023/01/01 07:48:14;;;;;;;5.35;2.05;;;13.50;99.90;;;;;;5095144;28;20023;-73
2023/01/01 07:50:41;;;;;;;5.20;2.20;;;13.40;99.90;;;;;;5095850;28;20032;-73
2023/01/01 07:53:07;;;;;;;6.30;2.03;;;13.40;99.90;;;;;;5095254;28;20477;-73
2023/01/01 07:55:35;;;;;;;4.40;2.15;;;13.40;99.90;;;;;;5113984;28;20058;-73
2023/01/01 07:58:01;;;;;;;5.63;2.05;;;13.40;99.90;;;;;;5095656;28;20058;-73
2023/01/01 08:00:28;;;;;;;6.30;2.03;;;13.40;99.90;;;;;;5095099;28;20036;-73
2023/01/01 08:02:54;;;;;;;3.95;2.15;;;13.30;99.90;;;;;;5095568;28;20479;-73
2023/01/01 08:05:19;;;;;;;5.40;2.05;;;13.30;99.90;;;;;;5095063;28;20023;-73
2023/01/01 08:07:49;;;;;;;5.60;2.20;;;13.20;99.90;;;;;;5095369;28;20099;-73
2023/01/01 08:10:16;;;;;;;3.75;2.10;;;13.20;99.90;;;;;;5095091;28;20118;-74
2023/01/01 08:12:42;;;;;;;5.20;2.40;;;13.20;99.90;;;;;;5113639;28;20081;-73
2023/01/01 08:15:09;;;;;;;5.63;2.08;;;13.20;99.90;;;;;;5113215;28;20107;-74
2023/01/01 08:17:35;;;;;;;6.55;2.33;;;13.20;99.90;;;;;;5095209;28;20043;-73
2023/01/01 08:20:01;;;;;;;7.15;2.00;;;13.20;99.90;;;;;;5095360;28;20122;-73
2023/01/01 08:22:27;;;;;;;4.35;1.90;;;13.10;99.90;;;;;;5113368;28;20532;-73
2023/01/01 08:24:52;;;;;;;4.70;2.10;;;13.20;99.90;;;;;;5095262;28;20422;-73
2023/01/01 08:27:18;;;;;;;4.25;2.10;;;13.20;99.90;;;;;;5094707;28;20062;-73
2023/01/01 08:29:44;;;;;;;5.15;2.13;;;13.20;99.90;;;;;;5095181;28;20389;-73
2023/01/01 08:32:13;;;;;;;4.63;2.35;;;13.20;99.90;;;;;;5094656;28;20028;-74
2023/01/01 08:34:39;;;;;;;6.32;2.33;;;13.20;99.90;;;;;;5095263;28;20031;-73
2023/01/01 08:37:05;;;;;;;4.82;2.20;;;13.20;99.90;;;;;;5095035;28;20020;-74
2023/01/01 08:39:30;;;;;;;4.97;2.33;;;13.20;99.90;;;;;;5094291;28;20035;-74
2023/01/01 08:41:56;;;;;;;5.53;2.20;;;13.30;99.90;;;;;;5095036;28;20080;-73
2023/01/01 08:44:22;;;;;;;3.83;2.08;;;13.30;99.90;;;;;;5094466;28;20027;-73
2023/01/01 08:46:48;;;;;;;6.50;2.28;;;13.30;99.90;;;;;;5113544;28;20057;-73
2023/01/01 08:49:14;;;;;;;7.53;2.97;;;13.30;99.90;;;;;;5112981;28;20031;-73
2023/01/01 08:51:39;;;;;;;5.85;2.42;;;13.30;99.90;;;;;;5095165;28;20080;-74
2023/01/01 08:54:05;;;;;;;4.95;2.25;;;13.30;99.90;;;;;;5094920;28;20084;-74
2023/01/01 08:56:32;;;;;;;7.07;2.63;;;13.40;99.90;;;;;;5094369;28;20027;-74
2023/01/01 08:58:57;;;;;;;6.43;2.90;;;13.30;99.90;;;;;;5096067;28;20042;-74
2023/01/01 09:01:26;;;;;;;5.00;3.03;;;13.40;99.90;;;;;;5116996;28;20028;-74
2023/01/01 09:03:52;;;;;;;6.47;2.97;;;13.40;99.90;;;;;;5099135;28;20431;-73
2023/01/01 09:06:17;;;;;;;5.55;2.38;;;13.50;99.90;;;;;;5098477;28;20053;-73
2023/01/01 09:08:43;;;;;;;5.95;2.25;;;13.50;99.90;;;;;;5099130;28;20114;-73
2023/01/01 09:11:26;;;;;;;4.75;2.00;;;13.50;99.90;;;;;;5097855;28;20027;-75
2023/01/01 09:13:52;;;;;;;3.63;1.98;;;13.50;99.90;;;;;;5099066;28;20059;-73
2023/01/01 09:16:19;;;;;;;6.47;2.17;;;13.60;99.90;;;;;;5116416;28;20039;-73
2023/01/01 09:18:44;;;;;;;5.57;1.85;;;13.60;99.90;;;;;;5117427;28;20042;-73
2023/01/01 09:21:10;;;;;;;6.63;1.80;;;13.70;99.90;;;;;;5098205;28;20023;-74
2023/01/01 09:23:36;;;;;;;2.92;1.52;;;13.80;99.90;;;;;;5117109;28;20508;-74
2023/01/01 09:26:03;;;;;;;4.10;1.80;;;13.80;99.90;;;;;;5098828;28;20031;-74
2023/01/01 09:28:29;;;;;;;6.18;1.67;;;13.90;99.90;;;;;;5098196;28;20245;-73
2023/01/01 09:30:55;;;;;;;4.63;2.00;;;13.90;99.90;;;;;;5098781;28;20049;-73
2023/01/01 09:33:20;;;;;;;5.57;2.30;;;14.00;99.90;;;;;;5098076;28;20390;-73
2023/01/01 09:35:46;;;;;;;3.97;1.77;;;14.00;99.90;;;;;;5116778;28;20051;-74
2023/01/01 09:38:12;;;;;;;5.65;1.77;;;14.10;99.90;;;;;;5097567;28;20037;-74
2023/01/01 09:41:02;;;;;;;3.60;1.75;;;14.10;99.90;;;;;;5098338;28;20028;-74
2023/01/01 09:43:44;;;;;;;2.75;1.20;;;14.20;99.90;;;;;;5116190;28;20028;-73
2023/01/01 09:46:10;;;;;;;4.65;1.73;;;14.20;99.90;;;;;;5098064;28;20028;-78
2023/01/01 09:48:53;;;;;;;3.50;1.60;;;14.30;99.90;;;;;;5116529;28;20034;-74
2023/01/01 09:51:20;;;;;;;8.02;1.70;;;14.30;99.90;;;;;;5116061;28;20526;-74
2023/01/01 09:53:50;;;;;;;7.18;1.85;;;14.40;99.90;;;;;;5098107;28;20165;-74
2023/01/01 09:56:24;;;;;;;2.72;1.50;;;14.40;99.90;;;;;;5097510;28;20051;-74
2023/01/01 09:58:50;;;;;;;4.40;1.73;;;14.50;99.90;;;;;;5098177;28;20111;-73
2023/01/01 10:01:37;;;;;;;4.35;1.70;;;14.50;99.90;;;;;;5097485;28;20082;-74
2023/01/01 10:04:17;;;;;;;5.05;1.90;;;14.60;99.90;;;;;;5116281;28;20107;-73
2023/01/01 10:06:53;;;;;;;8.48;1.58;;;14.70;99.90;;;;;;5098002;28;20026;-73
2023/01/01 10:09:33;;;;;;;2.67;1.60;;;14.70;99.90;;;;;;5097388;28;20476;-74
2023/01/01 10:12:12;;;;;;;2.58;1.52;;;14.70;99.90;;;;;;5097707;28;20024;-73
2023/01/01 10:14:44;;;;;;;4.18;1.77;;;14.80;99.90;;;;;;5115893;28;20388;-74
2023/01/01 10:17:33;;;;;;;2.33;1.40;;;14.80;99.90;;;;;;5097191;28;20052;-73
2023/01/01 10:20:18;;;;;;;5.32;1.58;;;15.00;99.90;;;;;;5097775;28;20099;-74
2023/01/01 10:22:47;;;;;;;3.40;1.58;;;14.90;99.90;;;;;;5097694;28;20028;-73
2023/01/01 10:25:22;;;;;;;3.55;1.80;;;14.90;99.90;;;;;;5097010;28;20027;-74
2023/01/01 10:28:16;;;;;;;7.47;1.75;;;15.00;99.90;;;;;;5115567;28;20495;-74
2023/01/01 10:30:43;;;;;;;4.47;1.80;;;15.00;99.90;;;;;;5094631;28;20051;-74
2023/01/01 10:33:13;;;;;;;6.97;2.20;;;15.00;99.90;;;;;;5115477;28;20023;-74
2023/01/01 10:35:44;;;;;;;4.93;2.10;;;15.00;99.90;;;;;;5097412;28;20110;-73
2023/01/01 10:38:21;;;;;;;4.10;2.10;;;15.10;99.90;;;;;;5115351;28;20020;-73
2023/01/01 10:40:47;;;;;;;4.85;1.73;;;15.20;99.90;;;;;;5115524;28;20385;-73
2023/01/01 10:43:12;;;;;;;6.72;1.90;;;15.20;99.90;;;;;;5115786;28;20031;-73
2023/01/01 10:45:45;;;;;;;3.78;1.45;;;15.30;99.90;;;;;;5114721;28;20024;-74
2023/01/01 10:48:19;;;;;;;6.65;2.55;;;15.30;99.90;;;;;;5115325;28;20099;-74
2023/01/01 10:51:12;;;;;;;6.22;1.67;;;15.40;99.90;;;;;;5097130;28;20035;-73
2023/01/01 10:53:49;;;;;;;3.47;1.52;;;15.40;99.90;;;;;;5096499;28;20045;-74
2023/01/01 10:56:19;;;;;;;10.55;3.65;;;15.50;99.90;;;;;;5096474;28;20456;-74
2023/01/01 10:58:55;;;;;;;6.13;2.30;;;15.50;99.90;;;;;;5097116;28;20044;-74
2023/01/01 11:01:27;;;;;;;4.15;1.50;;;15.70;99.90;;;;;;5114746;28;20027;-74
2023/01/01 11:04:00;;;;;;;;;;;15.70;99.90;;;;;;5097474;28;20030;-74
2023/01/01 11:06:30;;;;;;;5.78;2.13;;;15.80;99.90;;;;;;5096302;28;19972;-74
2023/01/01 11:08:58;;;;;;;4.88;2.00;;;15.90;99.90;;;;;;5096718;28;20034;-74
2023/01/01 11:11:35;;;;;;;6.28;1.85;;;16.00;99.90;;;;;;5096232;28;20054;-74
2023/01/01 11:14:07;;;;;;;6.57;1.65;;;16.00;99.90;;;;;;5096832;28;20028;-74
2023/01/01 11:16:38;;;;;;;5.15;1.52;;;16.00;99.90;;;;;;5095731;28;20572;-74
2023/01/01 11:19:14;;;;;;;2.60;1.20;;;16.10;99.90;;;;;;5096464;28;20394;-73
2023/01/01 11:21:46;;;;;;;3.20;1.45;;;16.10;99.90;;;;;;5095507;28;20097;-74
2023/01/01 11:24:21;;;;;;;3.13;1.73;;;16.20;99.90;;;;;;5096418;28;20027;-73
2023/01/01 11:26:47;;;;;;;3.85;1.60;;;16.30;99.90;;;;;;5096160;28;20028;-74
2023/01/01 11:29:28;;;;;;;6.45;1.63;;;16.40;99.90;;;;;;5114536;28;20027;-73
2023/01/01 11:31:55;;;;;;;4.95;1.17;;;16.50;99.90;;;;;;5114732;28;20030;-73
2023/01/01 11:34:27;;;;;;;5.57;1.30;;;16.60;99.90;;;;;;5095300;28;20030;-74
2023/01/01 11:37:04;;;;;;;;;;;16.70;99.90;;;;;;5114804;28;20096;-73
2023/01/01 11:39:34;;;;;;;4.30;1.25;;;16.70;99.90;;;;;;5114112;28;19912;-74
2023/01/01 11:42:00;;;;;;;4.47;1.58;;;16.80;99.90;;;;;;5114332;28;20026;-73
2023/01/01 11:44:44;;;;;;;4.90;1.40;;;16.80;99.90;;;;;;5095606;28;20020;-74
2023/01/01 11:47:38;;;;;;;4.95;1.67;;;16.80;99.90;;;;;;5114507;28;20472;-73
2023/01/01 11:50:15;;;;;;;3.30;1.23;;;16.80;99.90;;;;;;5113862;28;20094;-73
2023/01/01 11:52:46;;;;;;;10.73;1.50;;;16.90;99.90;;;;;;5113662;28;20525;-73
2023/01/01 11:55:43;;;;;;;5.90;1.38;;;16.90;99.80;;;;;;5114085;28;20032;-73
2023/01/01 11:58:46;;;;;;;3.50;1.17;;;16.90;99.90;;;;;;5114240;28;20475;-73
2023/01/01 12:01:27;;;;;;;7.93;1.45;;;17.00;99.90;;;;;;5095740;28;20040;-73
2023/01/01 12:04:05;;;;;;;3.03;1.15;;;17.00;99.80;;;;;;5095911;28;20436;-73
2023/01/01 12:06:42;;;;;;;5.32;1.48;;;17.00;99.90;;;;;;5095110;28;20027;-73
2023/01/01 12:09:26;;;;;;;6.95;1.42;;;17.20;99.30;;;;;;5095803;28;20030;-73
2023/01/01 12:11:58;;;;;;;4.82;1.73;;;17.30;99.40;;;;;;5095664;28;20118;-73
2023/01/01 12:14:46;;;;;;;3.80;1.48;;;17.50;98.90;;;;;;5113172;28;20027;-74
2023/01/01 12:17:24;;;;;;;3.05;1.20;;;17.60;97.70;;;;;;5113241;28;20063;-73
2023/01/01 12:20:00;;;;;;;3.95;1.15;;;17.80;97.10;;;;;;5094974;28;20038;-74
2023/01/01 12:22:25;;;;;;;4.03;1.20;;;18.10;96.60;;;;;;5113090;28;20031;-74
2023/01/01 12:24:52;;;;;;;6.35;1.48;;;18.20;95.50;;;;;;5095476;28;20031;-74
2023/01/01 12:27:33;;;;;;;6.35;1.45;;;18.30;94.80;;;;;;5095068;28;20087;-74
2023/01/01 12:30:12;;;;;;;5.55;1.25;;;18.50;94.50;;;;;;5095184;28;20027;-74
2023/01/01 12:32:58;;;;;;;7.35;1.30;;;18.70;93.80;;;;;;5094530;28;20027;-73
2023/01/01 12:35:52;;;;;;;5.75;1.60;;;18.60;92.70;;;;;;5094639;28;20020;-74
2023/01/01 12:38:57;;;;;;;5.00;1.38;;;18.40;93.00;;;;;;5095213;28;20081;-74
2023/01/01 12:41:31;;;;;;;5.93;1.10;;;18.40;92.80;;;;;;5060765;28;20051;-74
2023/01/01 12:44:37;;;;;;;3.97;1.15;;;18.30;92.90;;;;;;5113365;28;20052;-73
2023/01/01 12:47:33;;;;;;;5.07;1.30;;;18.30;92.40;;;;;;5095133;28;20030;-73
2023/01/01 12:50:18;;;;;;;4.25;1.35;;;18.20;92.70;;;;;;5094974;28;20465;-73
2023/01/01 12:52:50;;;;;;;5.20;1.50;;;18.40;92.60;;;;;;5094430;28;20020;-73
2023/01/01 12:55:15;;;;;;;4.88;1.45;;;18.50;93.00;;;;;;5094924;28;20380;-73
2023/01/01 12:58:07;;;;;;;4.53;1.75;;;18.50;92.30;;;;;;5094095;28;20347;-73
2023/01/01 13:00:36;;;;;;;4.57;1.30;;;18.50;92.80;;;;;;5112353;28;20032;-74
2023/01/01 13:03:18;;;;;;;6.30;1.77;;;18.40;93.00;;;;;;5094916;28;20028;-73
2023/01/01 13:05:50;;;;;;;6.45;2.08;;;18.30;92.60;;;;;;5112434;28;20365;-73
2023/01/01 13:08:15;;;;;;;;;;;18.20;93.00;;;;;;5095374;28;20024;-73
2023/01/01 13:10:53;;;;;;;4.43;1.05;;;18.10;92.30;;;;;;5112573;28;20419;-73
2023/01/01 13:13:19;;;;;;;6.90;1.20;;;18.00;92.50;;;;;;5094801;28;20035;-73